sensor_id;sensor_type;location;lat;lon;timestamp;temperature;humidity
28837;DHT22;50669;50.982;11.022;2024-01-15T00:00:58;12.70;61.20
28837;DHT22;50669;50.982;11.022;2024-01-15T00:03:26;12.70;61.20
28837;DHT22;50669;50.982;11.022;2024-01-15T00:05:52;12.70;61.10
28837;DHT22;50669;50.982;11.022;2024-01-15T00:08:18;12.70;61.20
28837;DHT22;50669;50.982;11.022;2024-01-15T00:10:43;12.70;61.20
28837;DHT22;50669;50.982;11.022;2024-01-15T00:13:11;12.70;61.20
28837;DHT22;50669;50.982;11.022;2024-01-15T00:15:37;12.70;61.20
28837;DHT22;50669;50.982;11.022;2024-01-15T00:18:02;12.70;61.20
28837;DHT22;50669;50.982;11.022;2024-01-15T00:20:28;12.70;61.20
28837;DHT22;50669;50.982;11.022;2024-01-15T00:22:58;12.70;61.20
28837;DHT22;50669;50.982;11.022;2024-01-15T00:25:24;12.70;61.30
28837;DHT22;50669;50.982;11.022;2024-01-15T00:27:55;12.70;61.20
28837;DHT22;50669;50.982;11.022;2024-01-15T00:30:20;12.70;61.20
28837;DHT22;50669;50.982;11.022;2024-01-15T00:32:48;12.70;61.30
28837;DHT22;50669;50.982;11.022;2024-01-15T00:35:14;12.70;61.30
28837;DHT22;50669;50.982;11.022;2024-01-15T00:37:39;12.70;61.20
28837;DHT22;50669;50.982;11.022;2024-01-15T00:40:05;12.70;61.20
28837;DHT22;50669;50.982;11.022;2024-01-15T00:42:33;12.70;61.20
28837;DHT22;50669;50.982;11.022;2024-01-15T00:44:59;12.70;61.20
28837;DHT22;50669;50.982;11.022;2024-01-15T00:47:24;12.70;61.30
28837;DHT22;50669;50.982;11.022;2024-01-15T00:49:50;12.70;61.30
28837;DHT22;50669;50.982;11.022;2024-01-15T00:52:15;12.70;61.30
28837;DHT22;50669;50.982;11.022;2024-01-15T00:54:41;12.70;61.20
28837;DHT22;50669;50.982;11.022;2024-01-15T00:57:09;12.70;61.30
28837;DHT22;50669;50.982;11.022;2024-01-15T00:59:34;12.70;61.20
28837;DHT22;50669;50.982;11.022;2024-01-15T01:02:00;12.70;61.30
28837;DHT22;50669;50.982;11.022;2024-01-15T01:04:26;12.70;61.30
28837;DHT22;50669;50.982;11.022;2024-01-15T01:06:51;12.70;61.20
28837;DHT22;50669;50.982;11.022;2024-01-15T01:09:17;12.70;61.20
28837;DHT22;50669;50.982;11.022;2024-01-15T01:11:43;12.70;61.30
28837;DHT22;50669;50.982;11.022;2024-01-15T01:14:08;12.70;61.30
28837;DHT22;50669;50.982;11.022;2024-01-15T01:16:39;12.70;61.30
28837;DHT22;50669;50.982;11.022;2024-01-15T01:19:07;12.70;61.30
28837;DHT22;50669;50.982;11.022;2024-01-15T01:21:35;12.70;61.40
28837;DHT22;50669;50.982;11.022;2024-01-15T01:24:01;12.70;61.30
28837;DHT22;50669;50.982;11.022;2024-01-15T01:26:29;12.70;61.20
28837;DHT22;50669;50.982;11.022;2024-01-15T01:28:54;12.70;61.30
28837;DHT22;50669;50.982;11.022;2024-01-15T01:31:23;12.70;61.40
28837;DHT22;50669;50.982;11.022;2024-01-15T01:33:49;12.70;61.30
28837;DHT22;50669;50.982;11.022;2024-01-15T01:36:15;12.70;61.30
28837;DHT22;50669;50.982;11.022;2024-01-15T01:38:41;12.60;61.20
28837;DHT22;50669;50.982;11.022;2024-01-15T01:41:09;12.70;61.20
28837;DHT22;50669;50.982;11.022;2024-01-15T01:43:37;12.70;61.30
28837;DHT22;50669;50.982;11.022;2024-01-15T01:46:03;12.60;61.30
28837;DHT22;50669;50.982;11.022;2024-01-15T01:48:29;12.70;61.30
28837;DHT22;50669;50.982;11.022;2024-01-15T01:51:02;12.60;61.30
28837;DHT22;50669;50.982;11.022;2024-01-15T01:53:32;12.70;61.40
28837;DHT22;50669;50.982;11.022;2024-01-15T01:55:59;12.60;61.40
28837;DHT22;50669;50.982;11.022;2024-01-15T01:58:30;12.70;61.40
28837;DHT22;50669;50.982;11.022;2024-01-15T02:01:00;12.60;61.20
28837;DHT22;50669;50.982;11.022;2024-01-15T02:03:30;12.60;61.30
28837;DHT22;50669;50.982;11.022;2024-01-15T02:05:56;12.70;61.40
28837;DHT22;50669;50.982;11.022;2024-01-15T02:08:25;12.70;61.40
28837;DHT22;50669;50.982;11.022;2024-01-15T02:10:51;12.70;61.40
28837;DHT22;50669;50.982;11.022;2024-01-15T02:13:17;12.60;61.30
28837;DHT22;50669;50.982;11.022;2024-01-15T02:15:43;12.60;61.30
28837;DHT22;50669;50.982;11.022;2024-01-15T02:18:09;12.60;61.30
28837;DHT22;50669;50.982;11.022;2024-01-15T02:20:35;12.60;61.40
28837;DHT22;50669;50.982;11.022;2024-01-15T02:23:09;12.60;61.40
28837;DHT22;50669;50.982;11.022;2024-01-15T02:25:41;12.60;61.30
28837;DHT22;50669;50.982;11.022;2024-01-15T02:28:10;12.70;61.40
28837;DHT22;50669;50.982;11.022;2024-01-15T02:30:41;12.60;61.30
28837;DHT22;50669;50.982;11.022;2024-01-15T02:33:08;12.60;61.40
28837;DHT22;50669;50.982;11.022;2024-01-15T02:35:34;12.60;61.30
28837;DHT22;50669;50.982;11.022;2024-01-15T02:38:02;12.60;61.40
28837;DHT22;50669;50.982;11.022;2024-01-15T02:40:28;12.60;61.40
28837;DHT22;50669;50.982;11.022;2024-01-15T02:42:54;12.60;61.40
28837;DHT22;50669;50.982;11.022;2024-01-15T02:45:21;12.60;61.50
28837;DHT22;50669;50.982;11.022;2024-01-15T02:47:47;12.70;61.40
28837;DHT22;50669;50.982;11.022;2024-01-15T02:50:15;12.60;61.50
28837;DHT22;50669;50.982;11.022;2024-01-15T02:52:44;12.60;61.40
28837;DHT22;50669;50.982;11.022;2024-01-15T02:55:10;12.60;61.50
28837;DHT22;50669;50.982;11.022;2024-01-15T02:57:35;12.60;61.50
28837;DHT22;50669;50.982;11.022;2024-01-15T03:00:03;12.60;61.40
28837;DHT22;50669;50.982;11.022;2024-01-15T03:02:29;12.60;61.40
28837;DHT22;50669;50.982;11.022;2024-01-15T03:04:57;12.60;61.30
28837;DHT22;50669;50.982;11.022;2024-01-15T03:07:22;12.60;62.20
28837;DHT22;50669;50.982;11.022;2024-01-15T03:09:48;12.60;61.50
28837;DHT22;50669;50.982;11.022;2024-01-15T03:12:16;12.60;61.50
28837;DHT22;50669;50.982;11.022;2024-01-15T03:14:42;12.60;61.40
28837;DHT22;50669;50.982;11.022;2024-01-15T03:17:07;12.60;61.40
28837;DHT22;50669;50.982;11.022;2024-01-15T03:19:35;12.60;61.50
28837;DHT22;50669;50.982;11.022;2024-01-15T03:22:01;12.60;61.50
28837;DHT22;50669;50.982;11.022;2024-01-15T03:24:29;12.60;61.40
28837;DHT22;50669;50.982;11.022;2024-01-15T03:26:55;12.60;61.40
28837;DHT22;50669;50.982;11.022;2024-01-15T03:29:25;12.60;61.40
28837;DHT22;50669;50.982;11.022;2024-01-15T03:31:51;12.60;61.50
28837;DHT22;50669;50.982;11.022;2024-01-15T03:34:19;12.60;61.50
28837;DHT22;50669;50.982;11.022;2024-01-15T03:36:44;12.60;61.50
28837;DHT22;50669;50.982;11.022;2024-01-15T03:39:12;12.60;62.20
28837;DHT22;50669;50.982;11.022;2024-01-15T03:41:40;12.60;61.40
28837;DHT22;50669;50.982;11.022;2024-01-15T03:44:06;12.60;61.50
28837;DHT22;50669;50.982;11.022;2024-01-15T03:46:32;12.60;61.50
28837;DHT22;50669;50.982;11.022;2024-01-15T03:49:00;12.60;61.50
28837;DHT22;50669;50.982;11.022;2024-01-15T03:51:28;12.60;61.40
28837;DHT22;50669;50.982;11.022;2024-01-15T03:53:53;12.60;61.50
28837;DHT22;50669;50.982;11.022;2024-01-15T03:56:21;12.60;61.50
28837;DHT22;50669;50.982;11.022;2024-01-15T03:58:47;12.60;61.50
28837;DHT22;50669;50.982;11.022;2024-01-15T04:01:13;12.60;61.50
28837;DHT22;50669;50.982;11.022;2024-01-15T04:03:38;12.60;61.40
28837;DHT22;50669;50.982;11.022;2024-01-15T04:06:06;12.60;61.50
28837;DHT22;50669;50.982;11.022;2024-01-15T04:08:34;12.60;61.50
28837;DHT22;50669;50.982;11.022;2024-01-15T04:11:01;12.60;61.50
28837;DHT22;50669;50.982;11.022;2024-01-15T04:13:32;12.60;61.50
28837;DHT22;50669;50.982;11.022;2024-01-15T04:15:58;12.60;61.50
28837;DHT22;50669;50.982;11.022;2024-01-15T04:18:23;12.60;61.50
28837;DHT22;50669;50.982;11.022;2024-01-15T04:20:49;12.60;61.60
28837;DHT22;50669;50.982;11.022;2024-01-15T04:23:17;12.60;61.50
28837;DHT22;50669;50.982;11.022;2024-01-15T04:25:42;12.60;61.50
28837;DHT22;50669;50.982;11.022;2024-01-15T04:28:11;12.60;61.50
28837;DHT22;50669;50.982;11.022;2024-01-15T04:30:37;12.60;61.50
28837;DHT22;50669;50.982;11.022;2024-01-15T04:33:03;12.60;61.50
28837;DHT22;50669;50.982;11.022;2024-01-15T04:35:34;12.60;62.30
28837;DHT22;50669;50.982;11.022;2024-01-15T04:38:02;12.60;61.50
28837;DHT22;50669;50.982;11.022;2024-01-15T04:40:28;12.60;61.50
28837;DHT22;50669;50.982;11.022;2024-01-15T04:42:56;12.60;61.50
28837;DHT22;50669;50.982;11.022;2024-01-15T04:45:24;12.60;61.50
28837;DHT22;50669;50.982;11.022;2024-01-15T04:47:54;12.60;61.50
28837;DHT22;50669;50.982;11.022;2024-01-15T04:50:20;12.60;61.60
28837;DHT22;50669;50.982;11.022;2024-01-15T04:52:45;12.60;61.60
28837;DHT22;50669;50.982;11.022;2024-01-15T04:55:11;12.60;61.60
28837;DHT22;50669;50.982;11.022;2024-01-15T04:57:37;12.60;61.60
28837;DHT22;50669;50.982;11.022;2024-01-15T05:00:05;12.60;61.80
28837;DHT22;50669;50.982;11.022;2024-01-15T05:02:30;12.60;61.50
28837;DHT22;50669;50.982;11.022;2024-01-15T05:04:58;12.60;61.50
28837;DHT22;50669;50.982;11.022;2024-01-15T05:07:26;12.60;61.40
28837;DHT22;50669;50.982;11.022;2024-01-15T05:09:52;12.60;61.50
28837;DHT22;50669;50.982;11.022;2024-01-15T05:12:19;12.60;61.50
28837;DHT22;50669;50.982;11.022;2024-01-15T05:14:47;12.60;61.50
28837;DHT22;50669;50.982;11.022;2024-01-15T05:17:13;12.60;61.60
28837;DHT22;50669;50.982;11.022;2024-01-15T05:19:38;12.60;61.50
28837;DHT22;50669;50.982;11.022;2024-01-15T05:22:04;12.50;61.50
28837;DHT22;50669;50.982;11.022;2024-01-15T05:24:30;12.60;61.40
28837;DHT22;50669;50.982;11.022;2024-01-15T05:26:56;12.50;61.50
28837;DHT22;50669;50.982;11.022;2024-01-15T05:29:21;12.50;61.50
28837;DHT22;50669;50.982;11.022;2024-01-15T05:31:52;12.50;61.50
28837;DHT22;50669;50.982;11.022;2024-01-15T05:34:17;12.50;61.50
28837;DHT22;50669;50.982;11.022;2024-01-15T05:36:48;12.60;62.30
28837;DHT22;50669;50.982;11.022;2024-01-15T05:39:13;12.60;61.50
28837;DHT22;50669;50.982;11.022;2024-01-15T05:41:39;12.60;61.60
28837;DHT22;50669;50.982;11.022;2024-01-15T05:44:05;12.50;61.50
28837;DHT22;50669;50.982;11.022;2024-01-15T05:46:30;12.60;61.60
28837;DHT22;50669;50.982;11.022;2024-01-15T05:48:58;12.50;61.50
28837;DHT22;50669;50.982;11.022;2024-01-15T05:51:24;12.50;61.60
28837;DHT22;50669;50.982;11.022;2024-01-15T05:53:54;12.60;61.70
28837;DHT22;50669;50.982;11.022;2024-01-15T05:56:20;12.50;61.60
28837;DHT22;50669;50.982;11.022;2024-01-15T05:58:45;12.50;61.50
28837;DHT22;50669;50.982;11.022;2024-01-15T06:01:11;12.60;61.70
28837;DHT22;50669;50.982;11.022;2024-01-15T06:03:37;12.50;61.60
28837;DHT22;50669;50.982;11.022;2024-01-15T06:06:02;12.50;61.40
28837;DHT22;50669;50.982;11.022;2024-01-15T06:08:28;12.50;61.50
28837;DHT22;50669;50.982;11.022;2024-01-15T06:10:56;12.50;61.50
28837;DHT22;50669;50.982;11.022;2024-01-15T06:13:24;12.50;61.50
28837;DHT22;50669;50.982;11.022;2024-01-15T06:15:49;12.50;61.70
28837;DHT22;50669;50.982;11.022;2024-01-15T06:18:20;12.50;61.60
28837;DHT22;50669;50.982;11.022;2024-01-15T06:20:45;12.50;61.50
28837;DHT22;50669;50.982;11.022;2024-01-15T06:23:11;12.50;61.60
28837;DHT22;50669;50.982;11.022;2024-01-15T06:25:37;12.50;61.60
28837;DHT22;50669;50.982;11.022;2024-01-15T06:28:05;12.50;61.60
28837;DHT22;50669;50.982;11.022;2024-01-15T06:30:30;12.50;61.50
28837;DHT22;50669;50.982;11.022;2024-01-15T06:32:57;12.50;61.60
28837;DHT22;50669;50.982;11.022;2024-01-15T06:35:22;12.50;61.70
28837;DHT22;50669;50.982;11.022;2024-01-15T06:37:48;12.50;61.70
28837;DHT22;50669;50.982;11.022;2024-01-15T06:40:13;12.50;61.50
28837;DHT22;50669;50.982;11.022;2024-01-15T06:42:40;12.50;61.60
28837;DHT22;50669;50.982;11.022;2024-01-15T06:45:06;12.50;61.60
28837;DHT22;50669;50.982;11.022;2024-01-15T06:47:37;12.50;61.70
28837;DHT22;50669;50.982;11.022;2024-01-15T06:50:02;12.50;61.60
28837;DHT22;50669;50.982;11.022;2024-01-15T06:52:30;12.50;61.60
28837;DHT22;50669;50.982;11.022;2024-01-15T06:54:55;12.50;61.60
28837;DHT22;50669;50.982;11.022;2024-01-15T06:57:21;12.50;61.70
28837;DHT22;50669;50.982;11.022;2024-01-15T06:59:47;12.50;61.70
28837;DHT22;50669;50.982;11.022;2024-01-15T07:02:12;12.50;61.70
28837;DHT22;50669;50.982;11.022;2024-01-15T07:04:38;12.50;61.60
28837;DHT22;50669;50.982;11.022;2024-01-15T07:07:04;12.50;61.50
28837;DHT22;50669;50.982;11.022;2024-01-15T07:09:29;12.50;61.70
28837;DHT22;50669;50.982;11.022;2024-01-15T07:11:59;12.50;61.70
28837;DHT22;50669;50.982;11.022;2024-01-15T07:14:25;12.50;61.70
28837;DHT22;50669;50.982;11.022;2024-01-15T07:16:51;12.50;61.60
28837;DHT22;50669;50.982;11.022;2024-01-15T07:19:17;12.50;61.70
28837;DHT22;50669;50.982;11.022;2024-01-15T07:21:45;12.50;61.70
28837;DHT22;50669;50.982;11.022;2024-01-15T07:24:11;12.50;61.70
28837;DHT22;50669;50.982;11.022;2024-01-15T07:26:39;12.50;61.70
28837;DHT22;50669;50.982;11.022;2024-01-15T07:29:07;12.50;61.60
28837;DHT22;50669;50.982;11.022;2024-01-15T07:31:37;12.50;61.70
28837;DHT22;50669;50.982;11.022;2024-01-15T07:34:03;12.50;61.70
28837;DHT22;50669;50.982;11.022;2024-01-15T07:36:28;12.50;61.70
28837;DHT22;50669;50.982;11.022;2024-01-15T07:38:57;12.50;61.70
28837;DHT22;50669;50.982;11.022;2024-01-15T07:41:25;12.50;61.70
28837;DHT22;50669;50.982;11.022;2024-01-15T07:43:52;12.50;61.70
28837;DHT22;50669;50.982;11.022;2024-01-15T07:46:20;12.50;61.70
28837;DHT22;50669;50.982;11.022;2024-01-15T07:48:46;12.50;61.70
28837;DHT22;50669;50.982;11.022;2024-01-15T07:51:12;12.50;61.70
28837;DHT22;50669;50.982;11.022;2024-01-15T07:53:37;12.50;61.70
28837;DHT22;50669;50.982;11.022;2024-01-15T07:56:05;12.50;61.70
28837;DHT22;50669;50.982;11.022;2024-01-15T07:58:31;12.50;61.70
28837;DHT22;50669;50.982;11.022;2024-01-15T08:00:56;12.50;61.70
28837;DHT22;50669;50.982;11.022;2024-01-15T08:03:22;12.50;61.70
28837;DHT22;50669;50.982;11.022;2024-01-15T08:05:48;12.50;61.60
28837;DHT22;50669;50.982;11.022;2024-01-15T08:08:17;12.50;61.80
28837;DHT22;50669;50.982;11.022;2024-01-15T08:10:44;12.50;61.70
28837;DHT22;50669;50.982;11.022;2024-01-15T08:13:11;12.50;61.70
28837;DHT22;50669;50.982;11.022;2024-01-15T08:15:37;12.50;61.70
28837;DHT22;50669;50.982;11.022;2024-01-15T08:18:05;12.50;61.70
28837;DHT22;50669;50.982;11.022;2024-01-15T08:20:31;12.50;61.70
28837;DHT22;50669;50.982;11.022;2024-01-15T08:22:56;12.50;61.60
28837;DHT22;50669;50.982;11.022;2024-01-15T08:25:22;12.50;61.70
28837;DHT22;50669;50.982;11.022;2024-01-15T08:27:47;12.50;61.70
28837;DHT22;50669;50.982;11.022;2024-01-15T08:30:13;12.50;61.70
28837;DHT22;50669;50.982;11.022;2024-01-15T08:32:39;12.50;61.60
28837;DHT22;50669;50.982;11.022;2024-01-15T08:35:10;12.50;61.70
28837;DHT22;50669;50.982;11.022;2024-01-15T08:37:38;12.50;61.70
28837;DHT22;50669;50.982;11.022;2024-01-15T08:40:07;12.50;61.70
28837;DHT22;50669;50.982;11.022;2024-01-15T08:42:32;12.50;61.70
28837;DHT22;50669;50.982;11.022;2024-01-15T08:45:00;12.50;61.70
28837;DHT22;50669;50.982;11.022;2024-01-15T08:47:28;12.50;61.80
28837;DHT22;50669;50.982;11.022;2024-01-15T08:49:56;12.50;61.70
28837;DHT22;50669;50.982;11.022;2024-01-15T08:52:22;12.50;61.70
28837;DHT22;50669;50.982;11.022;2024-01-15T08:54:47;12.50;61.70
28837;DHT22;50669;50.982;11.022;2024-01-15T08:57:13;12.50;61.70
28837;DHT22;50669;50.982;11.022;2024-01-15T08:59:41;12.50;61.70
28837;DHT22;50669;50.982;11.022;2024-01-15T09:02:09;12.50;61.70
28837;DHT22;50669;50.982;11.022;2024-01-15T09:04:35;12.50;61.70
28837;DHT22;50669;50.982;11.022;2024-01-15T09:07:03;12.50;61.70
28837;DHT22;50669;50.982;11.022;2024-01-15T09:09:31;12.50;61.80
28837;DHT22;50669;50.982;11.022;2024-01-15T09:11:59;12.50;61.80
28837;DHT22;50669;50.982;11.022;2024-01-15T09:14:25;12.50;61.70
28837;DHT22;50669;50.982;11.022;2024-01-15T09:16:52;12.50;61.70
28837;DHT22;50669;50.982;11.022;2024-01-15T09:19:18;12.50;61.70
28837;DHT22;50669;50.982;11.022;2024-01-15T09:21:47;12.50;61.70
28837;DHT22;50669;50.982;11.022;2024-01-15T09:24:12;12.50;61.70
28837;DHT22;50669;50.982;11.022;2024-01-15T09:26:38;12.50;61.70
28837;DHT22;50669;50.982;11.022;2024-01-15T09:29:04;12.50;61.70
28837;DHT22;50669;50.982;11.022;2024-01-15T09:31:29;12.50;61.70
28837;DHT22;50669;50.982;11.022;2024-01-15T09:33:55;12.50;61.70
28837;DHT22;50669;50.982;11.022;2024-01-15T09:36:22;12.50;61.70
28837;DHT22;50669;50.982;11.022;2024-01-15T09:38:51;12.50;61.80
28837;DHT22;50669;50.982;11.022;2024-01-15T09:41:19;12.50;61.80
28837;DHT22;50669;50.982;11.022;2024-01-15T09:43:45;12.50;61.70
28837;DHT22;50669;50.982;11.022;2024-01-15T09:46:11;12.50;61.70
28837;DHT22;50669;50.982;11.022;2024-01-15T09:48:39;12.50;61.70
28837;DHT22;50669;50.982;11.022;2024-01-15T09:51:06;12.50;61.70
28837;DHT22;50669;50.982;11.022;2024-01-15T09:53:33;12.50;61.70
28837;DHT22;50669;50.982;11.022;2024-01-15T09:55:59;12.50;61.70
28837;DHT22;50669;50.982;11.022;2024-01-15T09:58:25;12.50;61.70
28837;DHT22;50669;50.982;11.022;2024-01-15T10:00:52;12.50;61.70
28837;DHT22;50669;50.982;11.022;2024-01-15T10:03:18;12.50;61.70
28837;DHT22;50669;50.982;11.022;2024-01-15T10:05:44;12.50;61.70
28837;DHT22;50669;50.982;11.022;2024-01-15T10:08:09;12.50;61.70
28837;DHT22;50669;50.982;11.022;2024-01-15T10:10:37;12.50;62.50
28837;DHT22;50669;50.982;11.022;2024-01-15T10:13:06;12.60;61.70
28837;DHT22;50669;50.982;11.022;2024-01-15T10:15:35;12.60;61.70
28837;DHT22;50669;50.982;11.022;2024-01-15T10:18:03;12.50;61.60
28837;DHT22;50669;50.982;11.022;2024-01-15T10:20:34;12.50;61.70
28837;DHT22;50669;50.982;11.022;2024-01-15T10:23:00;12.50;61.70
28837;DHT22;50669;50.982;11.022;2024-01-15T10:25:28;12.60;61.70
28837;DHT22;50669;50.982;11.022;2024-01-15T10:28:04;12.50;61.60
28837;DHT22;50669;50.982;11.022;2024-01-15T10:30:30;12.60;61.70
28837;DHT22;50669;50.982;11.022;2024-01-15T10:33:02;12.50;61.70
28837;DHT22;50669;50.982;11.022;2024-01-15T10:35:33;12.60;61.70
28837;DHT22;50669;50.982;11.022;2024-01-15T10:38:01;12.60;61.70
28837;DHT22;50669;50.982;11.022;2024-01-15T10:40:27;12.60;61.70
28837;DHT22;50669;50.982;11.022;2024-01-15T10:42:55;12.60;61.70
28837;DHT22;50669;50.982;11.022;2024-01-15T10:45:22;12.60;61.80
28837;DHT22;50669;50.982;11.022;2024-01-15T10:47:48;12.50;61.70
28837;DHT22;50669;50.982;11.022;2024-01-15T10:50:14;12.60;61.80
28837;DHT22;50669;50.982;11.022;2024-01-15T10:52:43;12.60;61.80
28837;DHT22;50669;50.982;11.022;2024-01-15T10:55:12;12.60;61.80
28837;DHT22;50669;50.982;11.022;2024-01-15T10:57:38;12.60;61.80
28837;DHT22;50669;50.982;11.022;2024-01-15T11:00:04;12.60;61.80
28837;DHT22;50669;50.982;11.022;2024-01-15T11:02:36;12.60;61.80
28837;DHT22;50669;50.982;11.022;2024-01-15T11:05:03;12.60;61.80
28837;DHT22;50669;50.982;11.022;2024-01-15T11:07:30;12.60;61.80
28837;DHT22;50669;50.982;11.022;2024-01-15T11:09:56;12.60;61.80
28837;DHT22;50669;50.982;11.022;2024-01-15T11:12:28;12.60;61.80
28837;DHT22;50669;50.982;11.022;2024-01-15T11:15:04;12.60;61.80
28837;DHT22;50669;50.982;11.022;2024-01-15T11:18:00;12.60;61.80
28837;DHT22;50669;50.982;11.022;2024-01-15T11:20:26;12.60;61.80
28837;DHT22;50669;50.982;11.022;2024-01-15T11:22:52;12.60;61.80
28837;DHT22;50669;50.982;11.022;2024-01-15T11:25:18;12.60;61.80
28837;DHT22;50669;50.982;11.022;2024-01-15T11:27:51;12.60;61.80
28837;DHT22;50669;50.982;11.022;2024-01-15T11:30:17;12.60;61.80
28837;DHT22;50669;50.982;11.022;2024-01-15T11:32:48;12.60;61.80
28837;DHT22;50669;50.982;11.022;2024-01-15T11:35:16;12.70;61.90
28837;DHT22;50669;50.982;11.022;2024-01-15T11:40:23;12.60;61.70
28837;DHT22;50669;50.982;11.022;2024-01-15T11:43:07;12.70;61.80
28837;DHT22;50669;50.982;11.022;2024-01-15T11:45:37;12.70;61.80
28837;DHT22;50669;50.982;11.022;2024-01-15T11:50:49;12.70;61.90
28837;DHT22;50669;50.982;11.022;2024-01-15T11:53:40;12.70;61.80
28837;DHT22;50669;50.982;11.022;2024-01-15T11:56:15;12.70;61.70
28837;DHT22;50669;50.982;11.022;2024-01-15T11:58:42;12.70;61.70
28837;DHT22;50669;50.982;11.022;2024-01-15T12:01:08;12.70;61.70
28837;DHT22;50669;50.982;11.022;2024-01-15T12:03:37;12.70;61.80
28837;DHT22;50669;50.982;11.022;2024-01-15T12:06:06;12.70;61.80
28837;DHT22;50669;50.982;11.022;2024-01-15T12:08:32;12.70;61.80
28837;DHT22;50669;50.982;11.022;2024-01-15T12:10:58;12.70;61.80
28837;DHT22;50669;50.982;11.022;2024-01-15T12:13:23;12.70;61.70
28837;DHT22;50669;50.982;11.022;2024-01-15T12:15:49;12.70;61.70
28837;DHT22;50669;50.982;11.022;2024-01-15T12:18:18;12.80;61.90
28837;DHT22;50669;50.982;11.022;2024-01-15T12:20:45;12.70;61.80
28837;DHT22;50669;50.982;11.022;2024-01-15T12:23:13;12.80;61.90
28837;DHT22;50669;50.982;11.022;2024-01-15T12:25:39;12.70;61.80
28837;DHT22;50669;50.982;11.022;2024-01-15T12:28:09;12.80;62.00
28837;DHT22;50669;50.982;11.022;2024-01-15T12:30:35;12.80;61.90
28837;DHT22;50669;50.982;11.022;2024-01-15T12:33:07;12.80;61.90
28837;DHT22;50669;50.982;11.022;2024-01-15T12:35:34;12.80;61.90
28837;DHT22;50669;50.982;11.022;2024-01-15T12:38:03;12.80;61.80
28837;DHT22;50669;50.982;11.022;2024-01-15T12:40:28;12.80;61.90
28837;DHT22;50669;50.982;11.022;2024-01-15T12:42:55;12.80;61.80
28837;DHT22;50669;50.982;11.022;2024-01-15T12:45:21;12.80;62.00
28837;DHT22;50669;50.982;11.022;2024-01-15T12:47:48;12.80;62.00
28837;DHT22;50669;50.982;11.022;2024-01-15T12:50:16;12.80;62.00
28837;DHT22;50669;50.982;11.022;2024-01-15T12:52:42;12.80;61.90
28837;DHT22;50669;50.982;11.022;2024-01-15T12:55:10;12.80;62.10
28837;DHT22;50669;50.982;11.022;2024-01-15T12:57:36;12.80;62.00
28837;DHT22;50669;50.982;11.022;2024-01-15T13:00:05;12.80;62.10
28837;DHT22;50669;50.982;11.022;2024-01-15T13:02:33;12.80;62.10
28837;DHT22;50669;50.982;11.022;2024-01-15T13:04:59;12.80;62.10
28837;DHT22;50669;50.982;11.022;2024-01-15T13:07:29;12.80;62.20
28837;DHT22;50669;50.982;11.022;2024-01-15T13:09:55;12.80;62.20
28837;DHT22;50669;50.982;11.022;2024-01-15T13:12:20;12.80;62.20
28837;DHT22;50669;50.982;11.022;2024-01-15T13:14:48;12.80;62.20
28837;DHT22;50669;50.982;11.022;2024-01-15T13:17:13;12.80;62.10
28837;DHT22;50669;50.982;11.022;2024-01-15T13:19:42;12.80;62.20
28837;DHT22;50669;50.982;11.022;2024-01-15T13:22:07;12.80;62.20
28837;DHT22;50669;50.982;11.022;2024-01-15T13:24:35;12.80;62.20
28837;DHT22;50669;50.982;11.022;2024-01-15T13:27:03;12.80;62.30
28837;DHT22;50669;50.982;11.022;2024-01-15T13:29:30;12.80;62.30
28837;DHT22;50669;50.982;11.022;2024-01-15T13:31:56;12.80;62.40
28837;DHT22;50669;50.982;11.022;2024-01-15T13:34:21;12.80;62.30
28837;DHT22;50669;50.982;11.022;2024-01-15T13:36:50;12.80;62.30
28837;DHT22;50669;50.982;11.022;2024-01-15T13:39:15;12.80;62.40
28837;DHT22;50669;50.982;11.022;2024-01-15T13:41:50;12.80;62.30
28837;DHT22;50669;50.982;11.022;2024-01-15T13:44:16;12.80;62.40
28837;DHT22;50669;50.982;11.022;2024-01-15T13:46:41;12.80;62.40
28837;DHT22;50669;50.982;11.022;2024-01-15T13:49:07;12.80;62.40
28837;DHT22;50669;50.982;11.022;2024-01-15T13:51:35;12.80;62.40
28837;DHT22;50669;50.982;11.022;2024-01-15T13:54:02;12.80;62.40
28837;DHT22;50669;50.982;11.022;2024-01-15T13:56:29;12.80;62.40
28837;DHT22;50669;50.982;11.022;2024-01-15T13:58:58;12.90;62.50
28837;DHT22;50669;50.982;11.022;2024-01-15T14:01:24;12.90;63.30
28837;DHT22;50669;50.982;11.022;2024-01-15T14:03:49;12.90;62.50
28837;DHT22;50669;50.982;11.022;2024-01-15T14:06:17;12.90;62.50
28837;DHT22;50669;50.982;11.022;2024-01-15T14:08:43;12.90;62.50
28837;DHT22;50669;50.982;11.022;2024-01-15T14:11:08;12.90;62.50
28837;DHT22;50669;50.982;11.022;2024-01-15T14:13:35;12.90;62.50
28837;DHT22;50669;50.982;11.022;2024-01-15T14:16:01;12.90;62.60
28837;DHT22;50669;50.982;11.022;2024-01-15T14:18:27;12.90;62.60
28837;DHT22;50669;50.982;11.022;2024-01-15T14:20:53;12.90;62.60
28837;DHT22;50669;50.982;11.022;2024-01-15T14:23:19;12.90;62.60
28837;DHT22;50669;50.982;11.022;2024-01-15T14:25:45;12.90;62.60
28837;DHT22;50669;50.982;11.022;2024-01-15T14:28:10;12.90;62.60
28837;DHT22;50669;50.982;11.022;2024-01-15T14:30:36;12.90;62.60
28837;DHT22;50669;50.982;11.022;2024-01-15T14:33:04;12.90;62.70
28837;DHT22;50669;50.982;11.022;2024-01-15T14:35:30;12.90;62.70
28837;DHT22;50669;50.982;11.022;2024-01-15T14:37:58;12.90;62.80
28837;DHT22;50669;50.982;11.022;2024-01-15T14:40:25;12.90;62.80
28837;DHT22;50669;50.982;11.022;2024-01-15T14:42:53;12.90;62.80
28837;DHT22;50669;50.982;11.022;2024-01-15T14:45:26;12.90;62.80
28837;DHT22;50669;50.982;11.022;2024-01-15T14:47:52;12.90;62.80
28837;DHT22;50669;50.982;11.022;2024-01-15T14:50:18;12.90;62.90
28837;DHT22;50669;50.982;11.022;2024-01-15T14:52:46;12.90;62.90
28837;DHT22;50669;50.982;11.022;2024-01-15T14:55:12;12.90;62.90
28837;DHT22;50669;50.982;11.022;2024-01-15T14:57:38;12.90;62.90
28837;DHT22;50669;50.982;11.022;2024-01-15T15:00:05;12.90;62.90
28837;DHT22;50669;50.982;11.022;2024-01-15T15:02:34;12.90;63.00
28837;DHT22;50669;50.982;11.022;2024-01-15T15:05:01;12.90;63.00
28837;DHT22;50669;50.982;11.022;2024-01-15T15:07:29;12.90;62.90
28837;DHT22;50669;50.982;11.022;2024-01-15T15:09:54;12.90;63.00
28837;DHT22;50669;50.982;11.022;2024-01-15T15:12:20;12.90;63.00
28837;DHT22;50669;50.982;11.022;2024-01-15T15:14:46;12.90;62.90
28837;DHT22;50669;50.982;11.022;2024-01-15T15:17:11;12.90;63.10
28837;DHT22;50669;50.982;11.022;2024-01-15T15:19:39;12.90;63.00